Time;durP1;ratioP1;P1;durP2;ratioP2;P2;SDS_P1;SDS_P2;PMS_P1;PMS_P2;Temp;Humidity;BMP_temperature;BMP_pressure;BME280_temperature;BME280_humidity;BME280_pressure;Samples;Min_cycle;Max_cycle;Signal;HPM_P1;HPM_P2
2023/07/28 00:01:53;;;;;;;2.90;2.13;;;;;;;;;;5060981;28;20411;-85
2023/07/28 00:04:18;;;;;;;3.33;2.20;;;;;;;;;;5051710;28;20030;-86
2023/07/28 00:06:44;;;;;;;8.73;2.83;;;;;;;;;;5055892;28;20321;-87
2023/07/28 00:09:10;;;;;;;5.43;2.25;;;;;;;;;;5046869;28;20075;-86
2023/07/28 00:11:35;;;;;;;3.72;2.72;;;;;;;;;;5048523;28;20460;-86
2023/07/28 00:14:01;;;;;;;5.05;2.60;;;;;;;;;;5068261;28;20033;-85
2023/07/28 00:16:26;;;;;;;4.70;2.53;;;;;;;;;;5059244;28;20067;-85
2023/07/28 00:18:52;;;;;;;2.97;2.28;;;;;;;;;;5050315;28;20032;-85
2023/07/28 00:21:17;;;;;;;3.40;2.15;;;;;;;;;;5051795;28;20063;-86
2023/07/28 00:23:43;;;;;;;3.20;2.35;;;;;;;;;;5055168;28;20036;-86
2023/07/28 00:26:08;;;;;;;4.10;2.20;;;;;;;;;;5061969;28;20028;-86
2023/07/28 00:28:34;;;;;;;4.72;2.40;;;;;;;;;;5053363;28;20450;-85
2023/07/28 00:30:59;;;;;;;5.25;2.40;;;;;;;;;;5051886;28;20264;-85
2023/07/28 00:33:25;;;;;;;6.00;2.45;;;;;;;;;;5054819;28;20033;-85
2023/07/28 00:35:50;;;;;;;5.60;2.40;;;;;;;;;;5049367;28;20038;-85
2023/07/28 00:38:16;;;;;;;4.47;2.33;;;;;;;;;;5057888;28;20110;-86
2023/07/28 00:40:41;;;;;;;4.88;2.30;;;;;;;;;;5060038;28;20047;-86
2023/07/28 00:43:06;;;;;;;6.63;2.60;;;;;;;;;;5058441;28;20112;-86
2023/07/28 00:45:33;;;;;;;4.65;2.30;;;;;;;;;;5050315;28;20029;-83
2023/07/28 00:48:00;;;;;;;4.13;2.30;;;;;;;;;;5040421;28;20029;-86
2023/07/28 00:50:27;;;;;;;5.13;2.30;;;;;;;;;;5060878;28;20028;-86
2023/07/28 00:52:54;;;;;;;3.78;2.33;;;;;;;;;;5076961;23;20050;-84
2023/07/28 00:55:21;;;;;;;3.92;2.50;;;;;;;;;;5044417;28;20108;-86
2023/07/28 00:57:46;;;;;;;5.40;2.42;;;;;;;;;;5030011;28;20037;-84
2023/07/28 01:00:12;;;;;;;3.83;2.45;;;;;;;;;;5042660;28;20404;-86
2023/07/28 01:02:38;;;;;;;3.88;2.30;;;;;;;;;;5051634;28;20115;-85
2023/07/28 01:05:04;;;;;;;4.25;2.50;;;;;;;;;;5048488;28;20025;-84
2023/07/28 01:07:48;;;;;;;3.70;2.45;;;;;;;;;;5026136;28;20036;-85
2023/07/28 01:10:22;;;;;;;3.40;2.22;;;;;;;;;;5027685;28;20033;-82
2023/07/28 01:12:47;;;;;;;3.90;2.38;;;;;;;;;;5053781;28;20064;-85
2023/07/28 01:15:14;;;;;;;4.00;2.35;;;;;;;;;;5047831;28;20071;-83
2023/07/28 01:17:41;;;;;;;3.35;2.08;;;;;;;;;;5017843;28;20034;-83
2023/07/28 01:20:07;;;;;;;4.78;2.40;;;;;;;;;;5039924;28;20022;-84
2023/07/28 01:22:38;;;;;;;6.80;2.50;;;;;;;;;;5033325;28;20032;-82
2023/07/28 01:25:13;;;;;;;6.45;2.40;;;;;;;;;;5044424;28;20049;-82
2023/07/28 01:27:42;;;;;;;3.80;2.30;;;;;;;;;;5013644;28;20484;-82
2023/07/28 01:30:09;;;;;;;5.45;2.38;;;;;;;;;;5036528;28;20078;-83
2023/07/28 01:32:35;;;;;;;6.85;2.50;;;;;;;;;;5021907;28;20080;-84
2023/07/28 01:35:03;;;;;;;3.88;2.50;;;;;;;;;;5043323;28;20057;-85
2023/07/28 01:37:29;;;;;;;3.83;2.47;;;;;;;;;;5046364;28;20033;-82
2023/07/28 01:39:54;;;;;;;3.58;2.20;;;;;;;;;;5042382;28;20041;-84
2023/07/28 01:42:20;;;;;;;5.50;2.55;;;;;;;;;;5044676;28;20125;-84
2023/07/28 01:44:46;;;;;;;3.67;2.33;;;;;;;;;;5034062;28;20029;-83
2023/07/28 01:47:11;;;;;;;3.20;2.35;;;;;;;;;;5023001;28;20060;-86
2023/07/28 01:49:37;;;;;;;3.03;2.10;;;;;;;;;;5044049;28;20075;-83
2023/07/28 01:52:03;;;;;;;3.85;2.42;;;;;;;;;;5047499;28;20034;-83
2023/07/28 01:54:28;;;;;;;3.58;2.17;;;;;;;;;;5025944;28;20025;-84
2023/07/28 01:56:54;;;;;;;4.90;2.60;;;;;;;;;;5027522;28;20057;-86
2023/07/28 01:59:20;;;;;;;8.13;2.55;;;;;;;;;;5039696;28;20040;-83
2023/07/28 02:01:45;;;;;;;2.90;2.20;;;;;;;;;;5051757;28;20043;-85
2023/07/28 02:04:11;;;;;;;3.88;2.40;;;;;;;;;;5039496;28;20061;-83
2023/07/28 02:06:36;;;;;;;6.50;2.40;;;;;;;;;;5024543;28;20032;-84
2023/07/28 02:09:02;;;;;;;4.07;2.38;;;;;;;;;;5022544;28;20022;-83
2023/07/28 02:11:27;;;;;;;3.92;2.40;;;;;;;;;;5053313;28;20039;-83
2023/07/28 02:13:53;;;;;;;5.10;2.53;;;;;;;;;;5031930;28;20059;-83
2023/07/28 02:16:18;;;;;;;6.85;2.50;;;;;;;;;;5036418;28;20040;-82
2023/07/28 02:18:44;;;;;;;4.68;2.40;;;;;;;;;;5024595;28;20033;-80
2023/07/28 02:21:09;;;;;;;3.10;2.30;;;;;;;;;;5036065;28;20415;-83
2023/07/28 02:23:35;;;;;;;5.75;2.20;;;;;;;;;;5042388;28;20039;-83
2023/07/28 02:26:00;;;;;;;3.25;2.22;;;;;;;;;;5034178;28;20029;-82
2023/07/28 02:28:26;;;;;;;3.30;2.17;;;;;;;;;;5032137;28;20042;-82
2023/07/28 02:30:52;;;;;;;3.45;2.40;;;;;;;;;;5021435;28;20485;-84
2023/07/28 02:33:17;;;;;;;4.50;2.30;;;;;;;;;;5027000;28;20069;-82
2023/07/28 02:35:43;;;;;;;4.53;2.53;;;;;;;;;;5047692;28;20037;-84
2023/07/28 02:38:08;;;;;;;5.07;2.33;;;;;;;;;;5021828;28;20036;-83
2023/07/28 02:40:34;;;;;;;3.88;2.50;;;;;;;;;;5042074;28;20037;-83
2023/07/28 02:42:59;;;;;;;5.65;2.30;;;;;;;;;;5040129;28;20038;-85
2023/07/28 02:45:25;;;;;;;4.03;2.30;;;;;;;;;;5034793;28;20030;-84
2023/07/28 02:47:51;;;;;;;3.53;2.38;;;;;;;;;;5040925;28;20030;-86
2023/07/28 02:50:16;;;;;;;3.83;2.33;;;;;;;;;;5049487;28;20075;-86
2023/07/28 02:52:43;;;;;;;4.78;2.50;;;;;;;;;;5041801;28;20422;-85
2023/07/28 02:55:09;;;;;;;4.50;2.13;;;;;;;;;;5026097;28;20034;-83
2023/07/28 02:57:34;;;;;;;4.22;2.38;;;;;;;;;;5039327;28;20033;-85
2023/07/28 03:00:00;;;;;;;2.63;2.05;;;;;;;;;;5050602;28;20040;-85
2023/07/28 03:02:25;;;;;;;3.30;2.40;;;;;;;;;;5045040;28;20029;-84
2023/07/28 03:04:53;;;;;;;4.28;2.28;;;;;;;;;;5034172;28;20038;-83
2023/07/28 03:07:21;;;;;;;4.25;2.78;;;;;;;;;;5029649;28;20042;-84
2023/07/28 03:09:53;;;;;;;3.63;2.30;;;;;;;;;;5052734;28;20017;-84
2023/07/28 03:12:19;;;;;;;4.22;2.28;;;;;;;;;;5035436;28;20041;-85
2023/07/28 03:14:44;;;;;;;3.30;2.13;;;;;;;;;;5055106;28;20021;-84
2023/07/28 03:17:10;;;;;;;3.80;2.38;;;;;;;;;;5035248;28;20041;-84
2023/07/28 03:19:35;;;;;;;3.83;2.30;;;;;;;;;;5044109;28;20373;-85
2023/07/28 03:22:01;;;;;;;3.58;2.38;;;;;;;;;;5058736;28;20040;-84
2023/07/28 03:24:26;;;;;;;3.22;2.35;;;;;;;;;;5051129;28;20059;-82
2023/07/28 03:26:52;;;;;;;4.38;2.40;;;;;;;;;;5028912;28;20083;-82
2023/07/28 03:29:18;;;;;;;4.72;2.50;;;;;;;;;;5043712;28;20370;-85
2023/07/28 03:31:43;;;;;;;4.47;2.40;;;;;;;;;;5042862;28;20037;-84
2023/07/28 03:34:09;;;;;;;3.75;2.40;;;;;;;;;;5050559;28;20027;-84
2023/07/28 03:36:35;;;;;;;3.50;2.40;;;;;;;;;;5041059;28;20044;-85
2023/07/28 03:39:00;;;;;;;3.80;2.35;;;;;;;;;;5045321;28;20038;-83
2023/07/28 03:41:27;;;;;;;4.45;2.50;;;;;;;;;;5045712;28;20034;-84
2023/07/28 03:43:52;;;;;;;3.92;2.53;;;;;;;;;;5050399;28;20040;-85
2023/07/28 03:46:18;;;;;;;3.63;2.42;;;;;;;;;;5045340;28;20033;-86
2023/07/28 03:48:43;;;;;;;5.00;2.28;;;;;;;;;;5049189;28;20031;-85
2023/07/28 03:51:09;;;;;;;3.50;2.25;;;;;;;;;;5048276;28;20025;-86
2023/07/28 03:53:35;;;;;;;3.20;2.40;;;;;;;;;;5036367;28;20053;-84
2023/07/28 03:56:01;;;;;;;3.63;2.30;;;;;;;;;;5044143;28;20038;-85
2023/07/28 03:58:27;;;;;;;3.25;2.20;;;;;;;;;;5042607;28;20032;-84
2023/07/28 04:00:53;;;;;;;4.00;2.40;;;;;;;;;;5049172;28;20033;-84
2023/07/28 04:03:19;;;;;;;3.80;2.53;;;;;;;;;;5028794;28;20025;-84
2023/07/28 04:05:45;;;;;;;4.10;2.50;;;;;;;;;;5030138;28;20091;-85
2023/07/28 04:08:10;;;;;;;4.18;2.35;;;;;;;;;;5046121;28;20042;-81
2023/07/28 04:10:36;;;;;;;4.28;2.38;;;;;;;;;;5035161;28;20028;-84
2023/07/28 04:13:01;;;;;;;4.63;2.45;;;;;;;;;;5038715;28;20360;-83
2023/07/28 04:15:27;;;;;;;3.03;2.20;;;;;;;;;;5027890;28;20048;-84
2023/07/28 04:17:52;;;;;;;3.83;2.40;;;;;;;;;;5017686;28;20030;-84
2023/07/28 04:20:18;;;;;;;4.00;2.38;;;;;;;;;;5046230;28;20051;-84
2023/07/28 04:22:43;;;;;;;4.63;2.33;;;;;;;;;;5035999;28;20044;-83
2023/07/28 04:25:09;;;;;;;4.43;2.25;;;;;;;;;;5030341;28;20017;-84
2023/07/28 04:27:37;;;;;;;2.95;2.10;;;;;;;;;;5027022;28;20033;-82
2023/07/28 04:30:05;;;;;;;4.22;2.40;;;;;;;;;;5043537;28;20039;-86
2023/07/28 04:32:31;;;;;;;5.30;2.40;;;;;;;;;;5047407;28;20037;-82
2023/07/28 04:35:03;;;;;;;4.47;2.40;;;;;;;;;;5026403;28;20026;-84
2023/07/28 04:37:50;;;;;;;4.35;2.10;;;;;;;;;;5040745;28;20029;-82
2023/07/28 04:40:24;;;;;;;3.38;2.30;;;;;;;;;;5039896;28;20037;-84
2023/07/28 04:42:52;;;;;;;4.50;2.40;;;;;;;;;;5043883;28;20036;-84
2023/07/28 04:45:18;;;;;;;3.47;2.20;;;;;;;;;;5037506;28;20045;-84
2023/07/28 04:47:44;;;;;;;2.95;2.28;;;;;;;;;;5035640;28;20033;-86
2023/07/28 04:50:10;;;;;;;3.03;2.33;;;;;;;;;;5040466;28;20018;-84
2023/07/28 04:52:54;;;;;;;3.20;2.28;;;;;;;;;;5031859;28;20084;-84
2023/07/28 04:55:38;;;;;;;6.28;2.30;;;;;;;;;;5039734;28;20080;-83
2023/07/28 04:58:04;;;;;;;6.07;2.22;;;;;;;;;;5044748;28;20029;-84
2023/07/28 05:00:41;;;;;;;3.78;2.30;;;;;;;;;;5044292;28;20032;-84
2023/07/28 05:03:07;;;;;;;8.10;2.50;;;;;;;;;;5031824;28;20502;-85
2023/07/28 05:05:37;;;;;;;4.00;2.28;;;;;;;;;;5039404;28;20026;-85
2023/07/28 05:08:05;;;;;;;4.15;2.30;;;;;;;;;;5029181;28;20092;-84
2023/07/28 05:10:30;;;;;;;7.93;2.40;;;;;;;;;;5048159;28;20045;-82
2023/07/28 05:12:56;;;;;;;3.08;2.13;;;;;;;;;;5037996;28;20038;-85
2023/07/28 05:15:23;;;;;;;5.03;2.13;;;;;;;;;;5016713;28;20030;-82
2023/07/28 05:17:49;;;;;;;3.58;2.15;;;;;;;;;;5040283;28;20480;-82
2023/07/28 05:20:33;;;;;;;4.15;2.10;;;;;;;;;;5040890;28;20039;-82
2023/07/28 05:23:08;;;;;;;7.18;2.10;;;;;;;;;;5047720;28;20061;-86
2023/07/28 05:25:34;;;;;;;3.63;2.20;;;;;;;;;;5037969;28;20036;-84
2023/07/28 05:27:59;;;;;;;4.75;2.35;;;;;;;;;;5041406;28;20099;-84
2023/07/28 05:30:27;;;;;;;2.97;2.13;;;;;;;;;;5050671;28;20040;-84
2023/07/28 05:32:54;;;;;;;3.67;2.20;;;;;;;;;;5039510;28;20127;-85
2023/07/28 05:35:24;;;;;;;4.22;2.50;;;;;;;;;;5028826;28;20040;-83
2023/07/28 05:37:49;;;;;;;3.70;2.10;;;;;;;;;;5036820;28;20053;-83
2023/07/28 05:40:15;;;;;;;3.00;1.95;;;;;;;;;;5036006;28;20138;-85
2023/07/28 05:42:40;;;;;;;4.35;2.47;;;;;;;;;;5028910;28;20468;-84
2023/07/28 05:45:07;;;;;;;6.47;2.20;;;;;;;;;;5040719;28;20034;-84
2023/07/28 05:47:33;;;;;;;3.78;2.38;;;;;;;;;;5042528;28;20029;-86
2023/07/28 05:49:59;;;;;;;4.68;2.22;;;;;;;;;;5041445;28;20053;-85
2023/07/28 05:52:24;;;;;;;2.90;2.25;;;;;;;;;;5042274;28;20032;-85
2023/07/28 05:54:50;;;;;;;4.05;2.28;;;;;;;;;;5039955;28;20093;-84
2023/07/28 05:57:15;;;;;;;5.22;2.33;;;;;;;;;;5024868;28;20098;-84
2023/07/28 05:59:41;;;;;;;4.45;2.10;;;;;;;;;;5043561;28;20125;-84
2023/07/28 06:02:06;;;;;;;3.22;2.42;;;;;;;;;;5032504;28;20041;-85
2023/07/28 06:04:58;;;;;;;3.53;1.92;;;;;;;;;;5037572;28;20033;-85
2023/07/28 06:07:23;;;;;;;5.10;2.10;;;;;;;;;;5044142;28;20636;-82
2023/07/28 06:09:49;;;;;;;4.15;2.00;;;;;;;;;;5042859;28;20021;-82
2023/07/28 06:12:16;;;;;;;4.05;2.28;;;;;;;;;;5028250;28;20135;-82
2023/07/28 06:14:41;;;;;;;3.90;2.13;;;;;;;;;;5015718;28;20392;-83
2023/07/28 06:17:09;;;;;;;4.50;2.20;;;;;;;;;;5039222;28;20017;-83
2023/07/28 06:19:35;;;;;;;3.85;2.05;;;;;;;;;;5043522;28;20033;-81
2023/07/28 06:22:01;;;;;;;6.65;2.30;;;;;;;;;;5025002;28;20044;-81
2023/07/28 06:24:30;;;;;;;5.47;2.45;;;;;;;;;;5043262;28;20077;-82
2023/07/28 06:26:58;;;;;;;6.72;2.30;;;;;;;;;;5015934;28;20413;-81
2023/07/28 06:29:23;;;;;;;4.80;2.20;;;;;;;;;;5045141;28;20039;-86
2023/07/28 06:31:48;;;;;;;4.80;2.22;;;;;;;;;;5021797;28;20036;-83
2023/07/28 06:34:14;;;;;;;2.95;2.10;;;;;;;;;;5029568;28;20068;-81
2023/07/28 06:36:39;;;;;;;3.30;1.88;;;;;;;;;;5033493;28;20042;-85
2023/07/28 06:39:05;;;;;;;3.42;2.20;;;;;;;;;;5032497;28;20038;-81
2023/07/28 06:41:30;;;;;;;6.35;2.17;;;;;;;;;;5034655;28;20453;-81
2023/07/28 06:43:59;;;;;;;4.10;2.22;;;;;;;;;;5018150;28;20033;-83
2023/07/28 06:46:24;;;;;;;3.30;2.17;;;;;;;;;;5028787;28;20037;-81
2023/07/28 06:48:50;;;;;;;2.78;2.00;;;;;;;;;;5029348;28;20017;-83
2023/07/28 06:51:15;;;;;;;5.72;2.60;;;;;;;;;;5041911;28;20480;-84
2023/07/28 06:53:41;;;;;;;4.00;2.20;;;;;;;;;;5049482;28;20078;-86
2023/07/28 06:56:07;;;;;;;5.03;2.20;;;;;;;;;;5027113;28;20068;-86
2023/07/28 06:58:32;;;;;;;2.88;2.03;;;;;;;;;;5029202;28;20065;-85
2023/07/28 07:00:58;;;;;;;4.07;2.03;;;;;;;;;;5039065;28;20032;-85
2023/07/28 07:03:24;;;;;;;3.45;2.40;;;;;;;;;;5047251;28;20037;-83
2023/07/28 07:05:49;;;;;;;3.22;1.98;;;;;;;;;;5054954;28;20038;-83
2023/07/28 07:08:14;;;;;;;3.40;2.33;;;;;;;;;;5051128;28;20025;-82
2023/07/28 07:10:47;;;;;;;7.22;4.28;;;;;;;;;;5053031;28;20041;-81
2023/07/28 07:13:13;;;;;;;6.30;3.40;;;;;;;;;;5057407;28;20045;-83
2023/07/28 07:15:38;;;;;;;4.03;2.40;;;;;;;;;;5054059;28;20038;-82
2023/07/28 07:18:04;;;;;;;3.65;2.30;;;;;;;;;;5062211;28;20045;-81
2023/07/28 07:20:29;;;;;;;5.75;2.40;;;;;;;;;;5056668;28;20049;-85
2023/07/28 07:22:54;;;;;;;6.93;2.30;;;;;;;;;;5039788;28;20043;-85
2023/07/28 07:25:20;;;;;;;4.00;2.20;;;;;;;;;;5054006;28;20068;-85
2023/07/28 07:27:45;;;;;;;3.03;2.00;;;;;;;;;;5051466;28;20025;-84
2023/07/28 07:30:11;;;;;;;2.90;2.00;;;;;;;;;;5032696;28;20849;-82
2023/07/28 07:32:36;;;;;;;3.10;2.00;;;;;;;;;;5032259;28;20041;-82
2023/07/28 07:35:02;;;;;;;4.53;2.17;;;;;;;;;;5045541;28;20222;-85
2023/07/28 07:37:28;;;;;;;3.85;2.20;;;;;;;;;;5052855;28;20052;-86
2023/07/28 07:39:54;;;;;;;4.85;2.10;;;;;;;;;;5041791;28;20117;-84
2023/07/28 07:42:20;;;;;;;6.35;2.22;;;;;;;;;;5047913;28;20021;-85
2023/07/28 07:44:45;;;;;;;3.25;1.92;;;;;;;;;;5047148;28;20041;-83
2023/07/28 07:47:15;;;;;;;2.90;2.20;;;;;;;;;;5038929;28;20077;-86
2023/07/28 07:49:41;;;;;;;4.60;2.08;;;;;;;;;;5050072;28;20051;-85
2023/07/28 07:52:08;;;;;;;3.88;2.20;;;;;;;;;;5053445;28;20106;-85
2023/07/28 07:54:33;;;;;;;3.38;1.90;;;;;;;;;;5042600;28;20057;-82
2023/07/28 07:56:59;;;;;;;2.70;2.00;;;;;;;;;;5039905;28;20034;-83
2023/07/28 07:59:27;;;;;;;2.90;2.00;;;;;;;;;;5046871;28;20069;-86
2023/07/28 08:01:53;;;;;;;2.90;2.10;;;;;;;;;;5044934;28;20029;-83
2023/07/28 08:04:19;;;;;;;5.90;2.20;;;;;;;;;;5031937;28;20040;-85
2023/07/28 08:06:44;;;;;;;3.05;2.03;;;;;;;;;;5032148;28;20035;-83
2023/07/28 08:09:10;;;;;;;3.28;2.20;;;;;;;;;;5027730;28;20382;-83
2023/07/28 08:11:35;;;;;;;3.42;2.10;;;;;;;;;;5038459;28;20176;-82
2023/07/28 08:14:01;;;;;;;3.58;1.90;;;;;;;;;;5031476;28;20043;-83
2023/07/28 08:16:26;;;;;;;4.30;2.13;;;;;;;;;;5044201;28;20033;-84
2023/07/28 08:18:52;;;;;;;2.70;2.00;;;;;;;;;;5034006;28;20116;-85
2023/07/28 08:21:17;;;;;;;4.80;1.88;;;;;;;;;;5044680;28;20038;-85
2023/07/28 08:23:43;;;;;;;2.63;1.90;;;;;;;;;;5053339;28;20037;-85
2023/07/28 08:26:08;;;;;;;2.70;1.98;;;;;;;;;;5047162;28;20036;-85
2023/07/28 08:28:34;;;;;;;6.65;2.40;;;;;;;;;;5037250;28;20045;-84
2023/07/28 08:30:59;;;;;;;3.20;2.20;;;;;;;;;;5031656;28;20080;-83
2023/07/28 08:33:25;;;;;;;2.35;1.90;;;;;;;;;;5050430;28;20558;-84
2023/07/28 08:35:50;;;;;;;3.08;2.00;;;;;;;;;;5046961;28;20050;-85
2023/07/28 08:38:16;;;;;;;3.25;1.85;;;;;;;;;;5037749;28;20152;-84
2023/07/28 08:40:44;;;;;;;3.75;2.60;;;;;;;;;;5039116;28;20069;-85
2023/07/28 08:43:09;;;;;;;2.88;1.80;;;;;;;;;;5041508;28;20093;-83
2023/07/28 08:45:35;;;;;;;2.97;2.00;;;;;;;;;;5045195;28;20065;-83
2023/07/28 08:48:00;;;;;;;2.85;2.08;;;;;;;;;;5045909;28;20043;-87
2023/07/28 08:50:26;;;;;;;5.18;2.20;;;;;;;;;;5047086;28;20470;-87
2023/07/28 08:52:51;;;;;;;2.90;1.98;;;;;;;;;;5037624;28;20105;-84
2023/07/28 08:55:17;;;;;;;3.67;1.80;;;;;;;;;;5031475;28;20041;-85
2023/07/28 08:57:43;;;;;;;2.83;1.85;;;;;;;;;;5046327;28;20456;-86
2023/07/28 09:00:13;;;;;;;2.65;1.88;;;;;;;;;;5036667;28;20033;-84
2023/07/28 09:02:40;;;;;;;3.13;1.80;;;;;;;;;;5026630;28;20076;-85
2023/07/28 09:05:05;;;;;;;4.60;2.08;;;;;;;;;;5026585;28;20088;-85
2023/07/28 09:07:36;;;;;;;2.90;1.98;;;;;;;;;;5040302;28;20519;-86
2023/07/28 09:10:02;;;;;;;2.38;1.85;;;;;;;;;;5040465;28;20044;-84
2023/07/28 09:12:31;;;;;;;3.85;2.30;;;;;;;;;;5027973;28;20030;-84
2023/07/28 09:14:57;;;;;;;6.38;2.20;;;;;;;;;;5030328;28;20033;-87
2023/07/28 09:17:22;;;;;;;2.97;2.15;;;;;;;;;;5012368;28;20389;-87
2023/07/28 09:19:51;;;;;;;9.98;2.25;;;;;;;;;;5044591;28;20391;-85
2023/07/28 09:22:17;;;;;;;6.85;2.15;;;;;;;;;;5034223;28;20030;-86
2023/07/28 09:24:42;;;;;;;4.63;1.92;;;;;;;;;;5063998;23;20051;-87
2023/07/28 09:27:20;;;;;;;5.18;2.20;;;;;;;;;;5055495;28;20464;-86
2023/07/28 09:29:54;;;;;;;3.38;1.90;;;;;;;;;;5048874;28;20056;-86
2023/07/28 09:32:33;;;;;;;4.13;2.28;;;;;;;;;;5039271;28;20460;-86
2023/07/28 09:35:09;;;;;;;3.63;2.13;;;;;;;;;;5070401;28;20021;-85
2023/07/28 09:37:37;;;;;;;2.97;1.77;;;;;;;;;;5040328;28;20483;-86
2023/07/28 09:40:04;;;;;;;2.70;1.92;;;;;;;;;;5047162;28;20070;-87
2023/07/28 09:42:31;;;;;;;4.82;2.00;;;;;;;;;;5045435;28;20034;-86
2023/07/28 09:44:57;;;;;;;2.78;2.13;;;;;;;;;;5058644;28;20490;-86
2023/07/28 09:47:24;;;;;;;2.97;2.00;;;;;;;;;;5053628;28;20033;-86
2023/07/28 09:49:51;;;;;;;4.70;1.92;;;;;;;;;;5048312;28;20041;-87
2023/07/28 09:52:18;;;;;;;3.67;1.65;;;;;;;;;;5044463;28;20064;-87
2023/07/28 09:54:48;;;;;;;3.42;1.80;;;;;;;;;;5055346;28;20060;-87
2023/07/28 09:57:20;;;;;;;2.60;1.90;;;;;;;;;;5061696;28;20029;-86
2023/07/28 09:59:47;;;;;;;2.22;1.88;;;;;;;;;;5052119;28;20027;-85
2023/07/28 10:02:12;;;;;;;3.42;2.10;;;;;;;;;;5044383;28;20033;-86
2023/07/28 10:04:39;;;;;;;4.75;1.88;;;;;;;;;;5046139;28;20377;-86
2023/07/28 10:07:07;;;;;;;2.72;1.88;;;;;;;;;;5064820;28;20414;-86
2023/07/28 10:09:33;;;;;;;4.68;2.10;;;;;;;;;;5060551;28;20774;-85
2023/07/28 10:12:00;;;;;;;4.00;1.98;;;;;;;;;;5054305;28;20033;-87
2023/07/28 10:14:26;;;;;;;3.05;2.00;;;;;;;;;;5048017;28;20032;-87
2023/07/28 10:16:51;;;;;;;3.25;2.13;;;;;;;;;;5054783;28;20033;-87
2023/07/28 10:19:20;;;;;;;5.90;2.00;;;;;;;;;;5059210;28;20025;-86
2023/07/28 10:21:46;;;;;;;2.75;1.98;;;;;;;;;;5048195;28;20384;-86
2023/07/28 10:24:11;;;;;;;3.17;2.00;;;;;;;;;;5049021;28;20550;-86
2023/07/28 10:26:41;;;;;;;3.67;2.15;;;;;;;;;;5055883;28;20118;-88
2023/07/28 10:29:12;;;;;;;3.00;2.10;;;;;;;;;;5055891;28;20059;-87
2023/07/28 10:31:49;;;;;;;2.60;2.10;;;;;;;;;;5052481;28;20131;-87
2023/07/28 10:34:19;;;;;;;3.28;1.92;;;;;;;;;;5054106;28;20040;-87
2023/07/28 10:36:57;;;;;;;3.22;2.03;;;;;;;;;;5054546;28;20028;-87
2023/07/28 10:39:23;;;;;;;4.18;2.10;;;;;;;;;;5043245;28;20029;-88
2023/07/28 10:42:00;;;;;;;2.10;1.80;;;;;;;;;;5050259;28;20048;-88
2023/07/28 10:44:27;;;;;;;3.20;2.25;;;;;;;;;;5060274;28;20032;-89
2023/07/28 10:46:52;;;;;;;4.15;2.28;;;;;;;;;;5056522;28;20032;-88
2023/07/28 10:49:18;;;;;;;5.50;2.10;;;;;;;;;;5048557;28;20035;-87
2023/07/28 10:51:43;;;;;;;3.33;2.00;;;;;;;;;;5044073;28;20041;-87
2023/07/28 10:54:09;;;;;;;3.75;2.05;;;;;;;;;;5062194;28;20071;-87
2023/07/28 10:56:34;;;;;;;2.95;2.10;;;;;;;;;;5060981;28;20081;-88
2023/07/28 10:59:01;;;;;;;3.10;2.20;;;;;;;;;;5058958;28;20060;-88
2023/07/28 11:01:37;;;;;;;3.45;2.10;;;;;;;;;;5042916;28;20055;-88
2023/07/28 11:04:23;;;;;;;4.70;2.20;;;;;;;;;;5046608;28;20041;-87
2023/07/28 11:06:50;;;;;;;3.35;2.20;;;;;;;;;;5059448;28;20033;-88
2023/07/28 11:09:22;;;;;;;2.80;2.10;;;;;;;;;;5048094;28;20040;-88
2023/07/28 11:11:49;;;;;;;3.90;2.08;;;;;;;;;;5047183;28;20045;-88
2023/07/28 11:14:17;;;;;;;2.90;2.17;;;;;;;;;;5049548;28;20111;-87
2023/07/28 11:16:44;;;;;;;3.95;2.20;;;;;;;;;;5058762;28;20036;-85
2023/07/28 11:19:13;;;;;;;6.38;2.40;;;;;;;;;;5054921;28;20044;-86
2023/07/28 11:21:40;;;;;;;4.75;2.20;;;;;;;;;;5054757;28;20538;-87
2023/07/28 11:24:10;;;;;;;3.40;2.15;;;;;;;;;;5055943;28;20048;-86
2023/07/28 11:26:37;;;;;;;4.40;2.22;;;;;;;;;;5055857;28;20052;-87
2023/07/28 11:29:03;;;;;;;4.22;2.17;;;;;;;;;;5064136;28;20013;-87
2023/07/28 11:31:29;;;;;;;2.95;2.10;;;;;;;;;;5057222;28;20041;-88
2023/07/28 11:33:54;;;;;;;3.00;2.03;;;;;;;;;;5062967;28;20126;-88
2023/07/28 11:36:27;;;;;;;3.13;2.40;;;;;;;;;;5063161;28;20032;-87
2023/07/28 11:38:55;;;;;;;3.25;2.28;;;;;;;;;;5053585;28;20112;-87
2023/07/28 11:41:21;;;;;;;5.55;2.25;;;;;;;;;;5061462;28;20486;-89
2023/07/28 11:43:48;;;;;;;3.10;2.20;;;;;;;;;;5064642;28;20472;-87
2023/07/28 11:46:40;;;;;;;2.97;2.17;;;;;;;;;;5062813;28;20033;-88
2023/07/28 11:49:13;;;;;;;3.22;2.20;;;;;;;;;;5058696;28;20510;-88
2023/07/28 11:51:43;;;;;;;2.60;1.90;;;;;;;;;;5057267;28;20501;-86
2023/07/28 11:54:16;;;;;;;2.72;2.10;;;;;;;;;;5068590;28;20032;-87
2023/07/28 11:56:43;;;;;;;3.63;2.00;;;;;;;;;;5058709;28;20045;-86
2023/07/28 11:59:09;;;;;;;2.80;2.00;;;;;;;;;;5052770;28;20069;-87
2023/07/28 12:02:10;;;;;;;4.65;2.10;;;;;;;;;;5042717;28;20492;-88
2023/07/28 12:04:38;;;;;;;4.90;2.60;;;;;;;;;;5068178;28;20045;-89
2023/07/28 12:07:16;;;;;;;3.72;2.20;;;;;;;;;;5061135;28;20051;-88
2023/07/28 12:09:50;;;;;;;3.42;2.03;;;;;;;;;;5050747;28;20040;-87
2023/07/28 12:12:17;;;;;;;3.38;2.22;;;;;;;;;;5050419;28;20029;-87
2023/07/28 12:14:42;;;;;;;4.78;2.30;;;;;;;;;;5066834;28;20576;-87
2023/07/28 12:17:18;;;;;;;3.15;2.17;;;;;;;;;;5066466;28;20044;-88
2023/07/28 12:20:15;;;;;;;3.58;2.25;;;;;;;;;;5053199;28;20037;-88
2023/07/28 12:22:41;;;;;;;3.80;2.25;;;;;;;;;;5055951;28;20040;-87
2023/07/28 12:25:08;;;;;;;5.10;2.38;;;;;;;;;;5045725;28;20038;-87
2023/07/28 12:27:33;;;;;;;2.92;2.35;;;;;;;;;;5068312;28;20108;-87
2023/07/28 12:29:59;;;;;;;3.05;2.10;;;;;;;;;;5062136;28;20473;-89
2023/07/28 12:32:25;;;;;;;3.78;2.42;;;;;;;;;;5053215;28;20071;-88
2023/07/28 12:34:51;;;;;;;3.90;2.25;;;;;;;;;;5058755;28;20037;-87
2023/07/28 12:37:19;;;;;;;3.55;2.13;;;;;;;;;;5051912;28;20040;-88
2023/07/28 12:39:46;;;;;;;5.78;2.10;;;;;;;;;;5059911;28;20048;-89
2023/07/28 12:42:12;;;;;;;3.42;2.28;;;;;;;;;;5052600;28;20032;-88
2023/07/28 12:44:39;;;;;;;3.60;2.38;;;;;;;;;;5061361;28;20441;-88
2023/07/28 12:47:05;;;;;;;2.55;2.10;;;;;;;;;;5050202;28;20020;-88
2023/07/28 12:49:31;;;;;;;3.25;2.00;;;;;;;;;;5051177;28;20033;-89
2023/07/28 12:51:58;;;;;;;4.70;2.30;;;;;;;;;;5055931;28;20116;-88
2023/07/28 12:54:24;;;;;;;3.30;2.15;;;;;;;;;;5064570;28;20111;-88
2023/07/28 12:56:51;;;;;;;3.35;2.10;;;;;;;;;;5054721;28;20269;-88
2023/07/28 12:59:16;;;;;;;3.97;2.38;;;;;;;;;;5044183;28;20480;-88
2023/07/28 13:01:42;;;;;;;4.68;2.40;;;;;;;;;;5051322;28;20040;-88
2023/07/28 13:04:07;;;;;;;4.35;2.53;;;;;;;;;;5067839;28;20036;-89
2023/07/28 13:06:33;;;;;;;2.95;2.15;;;;;;;;;;5058534;28;20043;-88
2023/07/28 13:08:59;;;;;;;3.25;2.10;;;;;;;;;;5051690;28;20029;-89
2023/07/28 13:11:25;;;;;;;3.45;2.28;;;;;;;;;;5054461;28;20025;-88
2023/07/28 13:13:50;;;;;;;3.08;2.42;;;;;;;;;;5067266;28;20553;-88
2023/07/28 13:16:15;;;;;;;4.43;2.20;;;;;;;;;;5062898;28;20033;-88
2023/07/28 13:18:44;;;;;;;3.97;2.30;;;;;;;;;;5054313;28;20032;-88
2023/07/28 13:21:10;;;;;;;3.33;2.30;;;;;;;;;;5044522;28;20063;-89
2023/07/28 13:23:37;;;;;;;3.47;2.05;;;;;;;;;;5055358;28;20037;-89
2023/07/28 13:26:06;;;;;;;3.28;2.20;;;;;;;;;;5063184;28;20032;-89
2023/07/28 13:28:32;;;;;;;2.92;2.30;;;;;;;;;;5053142;28;20108;-88
2023/07/28 13:30:57;;;;;;;2.70;2.17;;;;;;;;;;5055044;28;20124;-87
2023/07/28 13:33:23;;;;;;;3.00;2.15;;;;;;;;;;5058293;28;20095;-87
2023/07/28 13:35:48;;;;;;;4.63;2.42;;;;;;;;;;5054145;28;20037;-88
2023/07/28 13:38:14;;;;;;;4.03;2.38;;;;;;;;;;5060242;28;20017;-88
2023/07/28 13:40:40;;;;;;;4.43;2.33;;;;;;;;;;5047738;28;20144;-89
2023/07/28 13:43:05;;;;;;;5.15;2.13;;;;;;;;;;5050396;28;20064;-88
2023/07/28 13:45:31;;;;;;;3.35;2.17;;;;;;;;;;5050400;28;20446;-89
2023/07/28 13:47:56;;;;;;;3.97;2.30;;;;;;;;;;5047299;28;20040;-87
2023/07/28 13:50:22;;;;;;;3.35;2.17;;;;;;;;;;5054118;28;20025;-87
2023/07/28 13:52:47;;;;;;;3.58;2.50;;;;;;;;;;5059798;28;20037;-87
2023/07/28 13:55:13;;;;;;;4.00;2.40;;;;;;;;;;5055708;28;20029;-88
2023/07/28 13:57:39;;;;;;;2.95;2.10;;;;;;;;;;5048104;28;20443;-88
2023/07/28 14:00:08;;;;;;;3.63;2.10;;;;;;;;;;5049178;28;20008;-87
2023/07/28 14:02:37;;;;;;;4.38;2.42;;;;;;;;;;5062726;28;20113;-88
2023/07/28 14:05:03;;;;;;;5.15;2.30;;;;;;;;;;5054302;28;20033;-89
2023/07/28 14:07:29;;;;;;;3.90;2.60;;;;;;;;;;5049761;28;20473;-86
2023/07/28 14:09:54;;;;;;;5.20;2.45;;;;;;;;;;5040421;28;20025;-87
2023/07/28 14:12:20;;;;;;;3.42;2.22;;;;;;;;;;5058308;28;20049;-87
2023/07/28 14:14:45;;;;;;;3.40;2.30;;;;;;;;;;5062413;28;20025;-87
2023/07/28 14:17:11;;;;;;;3.70;2.58;;;;;;;;;;5054064;28;20041;-87
2023/07/28 14:19:40;;;;;;;3.30;2.33;;;;;;;;;;5044831;28;20026;-88
2023/07/28 14:22:06;;;;;;;3.38;2.28;;;;;;;;;;5051491;28;20053;-87
2023/07/28 14:24:32;;;;;;;4.15;2.40;;;;;;;;;;5064390;28;20095;-87
2023/07/28 14:26:57;;;;;;;3.60;2.17;;;;;;;;;;5055242;28;20120;-86
2023/07/28 14:29:23;;;;;;;3.65;2.22;;;;;;;;;;5048262;28;20024;-87
2023/07/28 14:31:49;;;;;;;3.47;2.25;;;;;;;;;;5051642;28;20457;-87
2023/07/28 14:34:14;;;;;;;3.38;2.20;;;;;;;;;;5052376;28;20056;-85
2023/07/28 14:36:40;;;;;;;3.58;2.25;;;;;;;;;;5061047;28;20059;-88
2023/07/28 14:39:06;;;;;;;3.45;2.50;;;;;;;;;;5052607;28;20029;-89
2023/07/28 14:41:32;;;;;;;3.13;2.20;;;;;;;;;;5042599;28;20032;-88
2023/07/28 14:43:58;;;;;;;5.03;2.47;;;;;;;;;;5052575;28;20040;-87